EXS774 EGPH-LGSR
Flight info
| Callsign | EXS774 |
|---|---|
| Flight time | N/A |
| Altitude | 33000 |
| Route | TLA DCT SUSIS DCT BADGA DCT SUTEB DCT GASTU DCT NOMKA DCT ABERU T703 TIVDA/N0459F350 T703 DEXIT DCT TISKO DCT DOBOT DCT MODRA DCT BITLA UN132 TUXEM UT514 PEXAN |
| Aircraft | B738/M-SDE2E3FGHIRWXY/LB1 |
Departure
| Time | 2026-04-26 11:01 |
|---|---|
| Airport | Edinburgh Airport (EGPH) |
Arrival
| Time | N/A |
|---|---|
| Airport | Santorini International Airport (LGSR) |
| Time | Latitude | Longitude | Altitude | Speed | Heading |
|---|---|---|---|---|---|
| 2026-04-26 10:20 | 55.94752 | -3.36610 | 115 ft | 0 kts | 89° |
| 2026-04-26 10:52 | 55.94751 | -3.36629 | 114 ft | 4 kts | 86° |
| 2026-04-26 10:52 | 55.94750 | -3.36658 | 111 ft | 4 kts | 78° |
| 2026-04-26 10:52 | 55.94748 | -3.36671 | 111 ft | 4 kts | 73° |
| 2026-04-26 10:52 | 55.94737 | -3.36713 | 111 ft | 4 kts | 42° |
| 2026-04-26 10:53 | 55.94720 | -3.36727 | 115 ft | 1 kts | 345° |
| 2026-04-26 10:53 | 55.94715 | -3.36724 | 115 ft | 0 kts | 345° |
| 2026-04-26 10:55 | 55.94719 | -3.36726 | 115 ft | 5 kts | 345° |
| 2026-04-26 10:56 | 55.94772 | -3.36761 | 115 ft | 6 kts | 347° |
| 2026-04-26 10:56 | 55.94826 | -3.36776 | 115 ft | 11 kts | 355° |
| 2026-04-26 10:56 | 55.94901 | -3.36788 | 115 ft | 11 kts | 345° |
| 2026-04-26 10:56 | 55.94979 | -3.36736 | 114 ft | 15 kts | 48° |
| 2026-04-26 10:57 | 55.95031 | -3.36583 | 112 ft | 14 kts | 61° |
| 2026-04-26 10:57 | 55.95077 | -3.36432 | 114 ft | 13 kts | 57° |
| 2026-04-26 10:57 | 55.95128 | -3.36297 | 113 ft | 13 kts | 58° |
| 2026-04-26 10:57 | 55.95172 | -3.36160 | 115 ft | 13 kts | 60° |
| 2026-04-26 10:58 | 55.95217 | -3.36027 | 115 ft | 12 kts | 57° |
| 2026-04-26 10:58 | 55.95263 | -3.35900 | 111 ft | 12 kts | 57° |
| 2026-04-26 10:58 | 55.95305 | -3.35775 | 112 ft | 12 kts | 62° |
| 2026-04-26 10:58 | 55.95343 | -3.35648 | 115 ft | 11 kts | 61° |
| 2026-04-26 10:59 | 55.95384 | -3.35530 | 114 ft | 11 kts | 54° |
| 2026-04-26 10:59 | 55.95434 | -3.35432 | 112 ft | 11 kts | 21° |
| 2026-04-26 10:59 | 55.95506 | -3.35454 | 114 ft | 10 kts | 333° |
| 2026-04-26 10:59 | 55.95550 | -3.35556 | 111 ft | 11 kts | 281° |
| 2026-04-26 11:00 | 55.95543 | -3.35644 | 110 ft | 11 kts | 240° |
| 2026-04-26 11:00 | 55.95540 | -3.35652 | 112 ft | 0 kts | 238° |
| 2026-04-26 11:00 | 55.95532 | -3.35677 | 112 ft | 19 kts | 238° |
| 2026-04-26 11:00 | 55.95310 | -3.36328 | 110 ft | 102 kts | 239° |
| 2026-04-26 11:01 | 55.94826 | -3.37766 | 120 ft | 168 kts | 241° |
| 2026-04-26 11:01 | 55.94185 | -3.39726 | 624 ft | 198 kts | 240° |
| 2026-04-26 11:01 | 55.93478 | -3.42052 | 1124 ft | 226 kts | 243° |
| 2026-04-26 11:01 | 55.92699 | -3.44378 | 2350 ft | 212 kts | 236° |
| 2026-04-26 11:02 | 55.91880 | -3.46594 | 2951 ft | 221 kts | 236° |
| 2026-04-26 11:02 | 55.91029 | -3.48938 | 3414 ft | 228 kts | 237° |
| 2026-04-26 11:02 | 55.90157 | -3.51369 | 3943 ft | 231 kts | 238° |
| 2026-04-26 11:02 | 55.89315 | -3.53901 | 4284 ft | 246 kts | 239° |
| 2026-04-26 11:03 | 55.88439 | -3.56587 | 4764 ft | 256 kts | 238° |
| 2026-04-26 11:03 | 55.87204 | -3.58858 | 5490 ft | 259 kts | 209° |
| 2026-04-26 11:03 | 55.85465 | -3.59686 | 6300 ft | 263 kts | 182° |
| 2026-04-26 11:03 | 55.83669 | -3.58967 | 6991 ft | 272 kts | 154° |
| 2026-04-26 11:04 | 55.82240 | -3.56731 | 7668 ft | 281 kts | 127° |
| 2026-04-26 11:04 | 55.81463 | -3.53518 | 8364 ft | 288 kts | 103° |
| 2026-04-26 11:04 | 55.81183 | -3.49969 | 9070 ft | 292 kts | 98° |
| 2026-04-26 11:04 | 55.80991 | -3.46341 | 9744 ft | 297 kts | 98° |
| 2026-04-26 11:05 | 55.80816 | -3.42657 | 10407 ft | 300 kts | 98° |
| 2026-04-26 11:05 | 55.80637 | -3.38881 | 10722 ft | 317 kts | 98° |
| 2026-04-26 11:05 | 55.80436 | -3.34856 | 10878 ft | 337 kts | 97° |
| 2026-04-26 11:05 | 55.80216 | -3.30575 | 11036 ft | 357 kts | 97° |
| 2026-04-26 11:06 | 55.79980 | -3.26059 | 11182 ft | 376 kts | 97° |
| 2026-04-26 11:06 | 55.79813 | -3.22940 | 11281 ft | 388 kts | 97° |
| 2026-04-26 11:06 | 55.79465 | -3.16507 | 11768 ft | 401 kts | 97° |
| 2026-04-26 11:06 | 55.79192 | -3.11548 | 12340 ft | 404 kts | 97° |
| 2026-04-26 11:07 | 55.78914 | -3.06565 | 12940 ft | 407 kts | 97° |
| 2026-04-26 11:07 | 55.78631 | -3.01546 | 13499 ft | 411 kts | 97° |
| 2026-04-26 11:07 | 55.78342 | -2.96473 | 14048 ft | 415 kts | 97° |
| 2026-04-26 11:07 | 55.78047 | -2.91345 | 14541 ft | 418 kts | 97° |
| 2026-04-26 11:08 | 55.77748 | -2.86191 | 15026 ft | 422 kts | 97° |
| 2026-04-26 11:08 | 55.77444 | -2.80986 | 15502 ft | 426 kts | 97° |
| 2026-04-26 11:08 | 55.77135 | -2.75728 | 15995 ft | 429 kts | 97° |
| 2026-04-26 11:08 | 55.76822 | -2.70453 | 16489 ft | 432 kts | 97° |
| 2026-04-26 11:09 | 55.76504 | -2.65137 | 16969 ft | 435 kts | 97° |
| 2026-04-26 11:09 | 55.76181 | -2.59769 | 17435 ft | 438 kts | 97° |
| 2026-04-26 11:09 | 55.75853 | -2.54366 | 17898 ft | 442 kts | 97° |
| 2026-04-26 11:09 | 55.75520 | -2.48922 | 18333 ft | 445 kts | 97° |
| 2026-04-26 11:10 | 55.75183 | -2.43442 | 18748 ft | 449 kts | 97° |
| 2026-04-26 11:10 | 55.74840 | -2.37912 | 19133 ft | 451 kts | 97° |
| 2026-04-26 11:10 | 55.74493 | -2.32355 | 19534 ft | 454 kts | 97° |
| 2026-04-26 11:10 | 55.74142 | -2.26777 | 19926 ft | 457 kts | 97° |
| 2026-04-26 11:11 | 55.73786 | -2.21167 | 20351 ft | 458 kts | 97° |
| 2026-04-26 11:11 | 55.73427 | -2.15532 | 20782 ft | 460 kts | 97° |
| 2026-04-26 11:11 | 55.73063 | -2.09878 | 21132 ft | 463 kts | 97° |
| 2026-04-26 11:11 | 55.72694 | -2.04185 | 21465 ft | 466 kts | 97° |
| 2026-04-26 11:12 | 55.72320 | -1.98452 | 21818 ft | 469 kts | 97° |
| 2026-04-26 11:12 | 55.72069 | -1.94643 | 22048 ft | 471 kts | 97° |
| 2026-04-26 11:12 | 55.71562 | -1.86983 | 22490 ft | 474 kts | 97° |
| 2026-04-26 11:12 | 55.71173 | -1.81145 | 22828 ft | 477 kts | 97° |
| 2026-04-26 11:13 | 55.70780 | -1.75298 | 23152 ft | 479 kts | 97° |
| 2026-04-26 11:13 | 55.70381 | -1.69411 | 23464 ft | 482 kts | 97° |
| 2026-04-26 11:13 | 55.70109 | -1.65424 | 23682 ft | 484 kts | 97° |
| 2026-04-26 11:13 | 55.69702 | -1.59482 | 23983 ft | 486 kts | 97° |
| 2026-04-26 11:14 | 55.69297 | -1.53612 | 24253 ft | 488 kts | 97° |
| 2026-04-26 11:14 | 55.68882 | -1.47641 | 24512 ft | 490 kts | 97° |
| 2026-04-26 11:14 | 55.68462 | -1.41637 | 24760 ft | 491 kts | 97° |
| 2026-04-26 11:14 | 55.68037 | -1.35623 | 25019 ft | 493 kts | 97° |
| 2026-04-26 11:15 | 55.67608 | -1.29578 | 25269 ft | 495 kts | 98° |
| 2026-04-26 11:15 | 55.67174 | -1.23513 | 25506 ft | 497 kts | 98° |
| 2026-04-26 11:15 | 55.66735 | -1.17424 | 25739 ft | 499 kts | 98° |
| 2026-04-26 11:15 | 55.66292 | -1.11309 | 25982 ft | 501 kts | 98° |
| 2026-04-26 11:16 | 55.65845 | -1.05195 | 26270 ft | 501 kts | 98° |
| 2026-04-26 11:16 | 55.65395 | -0.99081 | 26552 ft | 501 kts | 98° |
| 2026-04-26 11:16 | 55.64941 | -0.92957 | 26838 ft | 501 kts | 98° |
| 2026-04-26 11:16 | 55.64485 | -0.86837 | 27186 ft | 500 kts | 98° |
| 2026-04-26 11:17 | 55.64028 | -0.80756 | 27530 ft | 499 kts | 98° |
| 2026-04-26 11:17 | 55.63566 | -0.74653 | 27845 ft | 499 kts | 98° |
| 2026-04-26 11:17 | 55.63103 | -0.68572 | 28154 ft | 499 kts | 98° |
| 2026-04-26 11:17 | 55.62638 | -0.62501 | 28485 ft | 498 kts | 98° |
| 2026-04-26 11:18 | 55.62170 | -0.56433 | 28817 ft | 497 kts | 98° |
| 2026-04-26 11:18 | 55.61699 | -0.50370 | 29132 ft | 497 kts | 98° |
| 2026-04-26 11:18 | 55.61227 | -0.44308 | 29445 ft | 497 kts | 98° |
| 2026-04-26 11:18 | 55.60753 | -0.38280 | 29768 ft | 496 kts | 98° |
| 2026-04-26 11:19 | 55.60432 | -0.32213 | 30075 ft | 496 kts | 90° |
| 2026-04-26 11:19 | 55.60495 | -0.26119 | 30361 ft | 495 kts | 88° |
| 2026-04-26 11:19 | 55.60644 | -0.20100 | 30612 ft | 495 kts | 87° |
| 2026-04-26 11:19 | 55.60812 | -0.14022 | 30854 ft | 495 kts | 87° |
| 2026-04-26 11:20 | 55.60973 | -0.07940 | 31089 ft | 495 kts | 87° |
| 2026-04-26 11:20 | 55.61071 | -0.03845 | 31249 ft | 495 kts | 87° |
| 2026-04-26 11:20 | 55.61240 | 0.04210 | 31605 ft | 493 kts | 88° |
| 2026-04-26 11:20 | 55.61350 | 0.10268 | 31870 ft | 493 kts | 88° |
| 2026-04-26 11:21 | 55.61451 | 0.16335 | 32078 ft | 493 kts | 88° |
| 2026-04-26 11:21 | 55.61547 | 0.22411 | 32268 ft | 494 kts | 88° |
| 2026-04-26 11:21 | 55.61639 | 0.28491 | 32485 ft | 494 kts | 88° |
| 2026-04-26 11:21 | 55.61729 | 0.34551 | 32733 ft | 493 kts | 88° |
| 2026-04-26 11:22 | 55.61816 | 0.40612 | 32985 ft | 492 kts | 88° |
| 2026-04-26 11:22 | 55.61900 | 0.46673 | 33200 ft | 492 kts | 88° |
| 2026-04-26 11:22 | 55.61983 | 0.52726 | 33352 ft | 493 kts | 88° |
| 2026-04-26 11:22 | 55.62062 | 0.58809 | 33352 ft | 495 kts | 88° |
| 2026-04-26 11:23 | 55.62213 | 0.70970 | 33358 ft | 492 kts | 88° |
| 2026-04-26 11:23 | 55.62351 | 0.83059 | 33359 ft | 490 kts | 88° |
| 2026-04-26 11:24 | 55.62475 | 0.95012 | 33362 ft | 488 kts | 89° |
| 2026-04-26 11:24 | 55.62588 | 1.07011 | 33365 ft | 487 kts | 89° |
| 2026-04-26 11:25 | 55.62689 | 1.18992 | 33376 ft | 487 kts | 89° |
| 2026-04-26 11:25 | 55.62779 | 1.30983 | 33368 ft | 488 kts | 89° |
| 2026-04-26 11:26 | 55.62857 | 1.43007 | 33377 ft | 489 kts | 89° |
| 2026-04-26 11:26 | 55.62924 | 1.55062 | 33375 ft | 490 kts | 89° |
| 2026-04-26 11:27 | 55.62978 | 1.67053 | 33376 ft | 491 kts | 89° |
| 2026-04-26 11:27 | 55.63022 | 1.79169 | 33382 ft | 492 kts | 89° |
| 2026-04-26 11:28 | 55.63053 | 1.91291 | 33376 ft | 493 kts | 89° |
| 2026-04-26 11:28 | 55.63072 | 2.03417 | 33381 ft | 493 kts | 89° |
| 2026-04-26 11:29 | 55.63080 | 2.15532 | 33381 ft | 492 kts | 89° |
| 2026-04-26 11:29 | 55.63075 | 2.27644 | 33387 ft | 492 kts | 89° |
| 2026-04-26 11:30 | 55.63063 | 2.37691 | 33384 ft | 491 kts | 89° |
| 2026-04-26 11:30 | 55.63033 | 2.51815 | 33387 ft | 490 kts | 90° |
| 2026-04-26 11:31 | 55.62474 | 2.63816 | 33386 ft | 489 kts | 103° |
| 2026-04-26 11:31 | 55.60298 | 2.75089 | 33391 ft | 488 kts | 112° |
| 2026-04-26 11:32 | 55.57835 | 2.86268 | 33390 ft | 488 kts | 112° |
| 2026-04-26 11:32 | 55.55394 | 2.97468 | 33384 ft | 488 kts | 111° |
| 2026-04-26 11:33 | 55.52989 | 3.08647 | 33386 ft | 488 kts | 111° |
| 2026-04-26 11:33 | 55.50579 | 3.19849 | 33387 ft | 488 kts | 111° |
| 2026-04-26 11:34 | 55.48160 | 3.31037 | 33389 ft | 489 kts | 111° |
| 2026-04-26 11:34 | 55.45725 | 3.42227 | 33380 ft | 489 kts | 111° |
| 2026-04-26 11:35 | 55.43290 | 3.53352 | 33389 ft | 489 kts | 112° |
| 2026-04-26 11:35 | 55.42463 | 3.57115 | 33384 ft | 489 kts | 112° |